Monday, December 10, 2018, 9:38 PM EST
Back to Local

KFOK, The Gabreski Airport

Location: East Quogue, NY, United States Lat: 40.85
Local Time: 9:38 PM EST ( 2:38 GMT) Lon: -72.617
Time Zone: US/Eastern Elev: 65 ft

Show me the last for .
Show Coded

Time T Td Feel RH Dir Speed Gust Alt SLP Vis Weather Sky Remarks
2018-12-10 20:53 17 10 10 73 350° 5 - 30.17 30.17 10 CLR None
2018-12-10 19:53 17 10 - 73 - Calm - 30.17 30.17 10 CLR None
2018-12-10 18:53 22 12 - 65 - Calm - 30.17 30.16 10 CLR 6-hr Min Temp (7pm): 21.0°F
6-hr Max Temp (7pm): 39.0°F
2018-12-10 17:53 24 14 - 64 - Calm - 30.15 30.15 10 CLR None
2018-12-10 16:53 30 16 26 55 20° 3 - 30.13 30.13 10 CLR None
2018-12-10 15:53 36 17 30 45 10° 8 - 30.12 30.12 10 CLR None
2018-12-10 14:53 38 17 31 42 10° 10 - 30.11 30.11 10 CLR None
2018-12-10 13:53 38 18 28 43 360° 12 20 30.10 30.10 10 CLR None
2018-12-10 12:53 38 18 27 43 340° 14 22 30.10 30.10 10 CLR 6-hr Min Temp (1pm): 30.9°F
6-hr Max Temp (1pm): 39.0°F
2018-12-10 11:53 38 17 27 42 10° 15 23 30.10 30.10 10 CLR None
2018-12-10 10:53 37 15 25 40 10° 21 29 30.12 30.12 10 CLR None
2018-12-10 09:53 36 18 24 47 10° 14 24 30.13 30.13 10 CLR None
2018-12-10 08:53 35 20 27 53 20° 12 - 30.12 30.12 10 CLR None
2018-12-10 07:53 33 21 25 60 20° 9 - 30.11 30.11 10 CLR None
2018-12-10 06:53 31 20 19 63 10° 13 20 30.09 30.09 10 CLR 6-hr Min Temp (7am): 15.1°F
6-hr Max Temp (7am): 30.9°F
2018-12-10 05:53 31 20 21 63 10° 13 - 30.08 30.08 10 CLR None
2018-12-10 04:53 30 20 21 65 10° 10 - 30.07 30.07 10 CLR None
2018-12-10 03:53 30 21 22 68 360° 9 - 30.08 30.08 10 CLR None
2018-12-10 02:53 26 20 18 77 360° 7 - 30.10 30.10 10 CLR None
2018-12-10 01:53 17 13 10 83 350° 5 - 30.12 30.12 10 CLR None
2018-12-10 00:53 21 16 - 80 - Calm - 30.12 30.12 10 CLR 6-hr Min Temp (1am): 19.9°F
6-hr Max Temp (1am): 27.0°F
2018-12-09 23:53 24 18 20 77 340° 3 - 30.14 30.14 10 CLR 24-hr Min Temp (12am): 12.0°F
24-hr Max Temp (12am): 35.1°F
2018-12-09 22:53 24 18 - 77 - Calm - 30.17 30.17 10 CLR None
2018-12-09 21:53 24 19 - 80 - Calm - 30.21 30.21 10 CLR None

Support USWX by starting your Amazon purchase here.